createdAt,value
2023-03-18T00:00:20.086Z,52.2
2023-03-18T00:05:16.977Z,52.1
2023-03-18T00:10:16.926Z,52.1
2023-03-18T00:15:19.845Z,52.1
2023-03-18T00:20:19.865Z,52.0
2023-03-18T00:25:19.910Z,52.0
2023-03-18T00:30:19.882Z,51.9
2023-03-18T00:35:19.935Z,51.8
2023-03-18T00:40:19.866Z,51.8
2023-03-18T00:45:19.883Z,51.6
2023-03-18T00:50:19.824Z,51.5
2023-03-18T00:55:19.863Z,51.4
2023-03-18T01:00:19.885Z,51.3
2023-03-18T01:05:19.851Z,51.2
2023-03-18T01:10:19.918Z,51.2
2023-03-18T01:15:16.903Z,51.1
2023-03-18T01:20:16.905Z,51.0
2023-03-18T01:25:16.937Z,51.0
2023-03-18T01:30:16.950Z,50.9
2023-03-18T01:35:16.900Z,50.9
2023-03-18T01:40:19.923Z,50.8
2023-03-18T01:45:16.914Z,50.7
2023-03-18T01:50:16.983Z,50.6
2023-03-18T01:55:19.943Z,50.6
2023-03-18T02:00:19.945Z,50.5
2023-03-18T02:05:19.932Z,50.5
2023-03-18T02:10:20.050Z,50.4
2023-03-18T02:15:19.893Z,50.3
2023-03-18T02:20:19.888Z,50.2
2023-03-18T02:25:19.917Z,50.2
2023-03-18T02:30:16.929Z,50.1
2023-03-18T02:35:19.941Z,50.0
2023-03-18T02:40:19.968Z,50.0
2023-03-18T02:45:16.978Z,49.9
2023-03-18T02:50:19.952Z,49.9
2023-03-18T02:55:16.972Z,49.8
2023-03-18T03:00:19.966Z,49.8
2023-03-18T03:05:19.925Z,49.7
2023-03-18T03:10:19.993Z,49.7
2023-03-18T03:15:16.978Z,49.7
2023-03-18T03:20:19.956Z,49.7
2023-03-18T03:25:17.031Z,49.7
2023-03-18T03:30:19.984Z,49.7
2023-03-18T03:35:19.991Z,49.7
2023-03-18T03:40:17.050Z,49.6
2023-03-18T03:45:20.011Z,49.7
2023-03-18T03:50:20.011Z,49.6
2023-03-18T03:55:17.037Z,49.6
2023-03-18T04:00:19.228Z,49.6
2023-03-18T04:05:16.313Z,49.6
2023-03-18T04:10:19.248Z,49.6
2023-03-18T04:15:19.248Z,49.6
2023-03-18T04:20:16.258Z,49.6
2023-03-18T04:25:19.270Z,49.6
2023-03-18T04:30:19.235Z,49.6
2023-03-18T04:35:16.344Z,49.6
2023-03-18T04:40:19.224Z,49.6
2023-03-18T04:45:19.237Z,49.6
2023-03-18T04:50:16.275Z,49.6
2023-03-18T04:55:19.257Z,49.6
2023-03-18T05:00:19.237Z,49.6
2023-03-18T05:05:16.327Z,49.6
2023-03-18T05:10:19.261Z,49.6
2023-03-18T05:15:19.257Z,49.6
2023-03-18T05:20:16.255Z,49.6
2023-03-18T05:25:19.339Z,49.6
2023-03-18T05:30:19.305Z,49.6
2023-03-18T05:35:19.300Z,49.5
2023-03-18T05:40:19.221Z,49.5
2023-03-18T05:45:19.246Z,49.5
2023-03-18T05:50:19.280Z,49.5
2023-03-18T05:55:16.301Z,49.5
2023-03-18T06:00:16.101Z,49.4
2023-03-18T06:05:16.309Z,49.4
2023-03-18T06:10:19.338Z,49.4
2023-03-18T06:15:16.322Z,49.4
2023-03-18T06:20:19.322Z,49.4
2023-03-18T06:25:16.294Z,49.4
2023-03-18T06:30:19.360Z,49.3
2023-03-18T06:35:16.321Z,49.3
2023-03-18T06:40:19.347Z,49.3
2023-03-18T06:45:19.269Z,49.2
2023-03-18T06:50:16.343Z,49.3
2023-03-18T06:55:19.353Z,49.2
2023-03-18T07:00:16.437Z,49.2
2023-03-18T07:05:19.301Z,49.2
2023-03-18T07:10:16.341Z,49.2
2023-03-18T07:15:19.366Z,49.2
2023-03-18T07:20:19.384Z,49.2
2023-03-18T07:25:16.440Z,49.1
2023-03-18T07:30:19.358Z,49.1
2023-03-18T07:35:19.346Z,49.1
2023-03-18T07:40:19.302Z,49.1
2023-03-18T07:45:19.330Z,49.1
2023-03-18T07:50:16.418Z,49.1
2023-03-18T07:55:19.313Z,49.1
2023-03-18T08:00:16.220Z,49.1
2023-03-18T08:05:16.514Z,49.2
2023-03-18T08:10:19.337Z,49.1
2023-03-18T08:15:19.352Z,49.1
2023-03-18T08:20:16.379Z,49.1
2023-03-18T08:25:19.604Z,49.2
2023-03-18T08:30:19.344Z,49.2
2023-03-18T08:35:16.344Z,49.2
2023-03-18T08:40:16.213Z,49.2
2023-03-18T08:45:19.428Z,49.2
2023-03-18T08:50:16.410Z,49.2
2023-03-18T08:55:19.386Z,49.1
2023-03-18T09:00:16.424Z,49.1
2023-03-18T09:05:16.383Z,49.0
2023-03-18T09:10:19.389Z,49.0
2023-03-18T09:15:16.340Z,49.0
2023-03-18T09:20:19.381Z,48.9
2023-03-18T09:25:19.353Z,48.9
2023-03-18T09:30:19.372Z,48.8
2023-03-18T09:35:16.447Z,48.8
2023-03-18T09:40:19.414Z,48.8
2023-03-18T09:45:19.448Z,48.7
2023-03-18T09:50:16.441Z,48.7
2023-03-18T09:55:16.403Z,48.7
2023-03-18T10:00:19.488Z,48.6
2023-03-18T10:05:19.450Z,48.5
2023-03-18T10:10:16.447Z,48.5
2023-03-18T10:15:16.462Z,48.4
2023-03-18T10:20:19.423Z,48.4
2023-03-18T10:25:21.171Z,48.3
2023-03-18T10:30:16.470Z,48.2
2023-03-18T10:35:19.428Z,48.2
2023-03-18T10:40:19.480Z,48.1
2023-03-18T10:45:19.430Z,48.0
2023-03-18T10:50:19.401Z,47.9
2023-03-18T10:55:16.487Z,47.8
2023-03-18T11:00:16.500Z,47.7
2023-03-18T11:05:19.481Z,47.7
2023-03-18T11:10:19.418Z,47.6
2023-03-18T11:15:19.461Z,47.6
2023-03-18T11:20:19.421Z,47.5
2023-03-18T11:25:16.682Z,47.5
2023-03-18T11:30:27.500Z,47.4
2023-03-18T11:35:19.507Z,47.4
2023-03-18T11:40:19.481Z,47.3
2023-03-18T11:45:19.440Z,47.2
2023-03-18T11:50:19.453Z,47.1
2023-03-18T11:55:16.428Z,46.9
2023-03-18T12:00:19.490Z,46.9
2023-03-18T12:05:19.527Z,46.8
2023-03-18T12:10:16.516Z,46.8
2023-03-18T12:15:19.577Z,46.8
2023-03-18T12:20:19.548Z,46.7
2023-03-18T12:25:19.420Z,46.6
2023-03-18T12:30:16.475Z,46.5
2023-03-18T12:35:20.750Z,46.5
2023-03-18T12:40:19.520Z,46.4
2023-03-18T12:45:16.558Z,46.3
2023-03-18T12:50:16.474Z,46.2
2023-03-18T12:55:19.476Z,46.1
2023-03-18T13:00:19.594Z,46.0
2023-03-18T13:05:19.497Z,46.0
2023-03-18T13:10:19.478Z,45.9
2023-03-18T13:15:19.505Z,45.9
2023-03-18T13:20:19.491Z,46.1
2023-03-18T13:25:16.327Z,46.1
2023-03-18T13:30:25.845Z,46.1
2023-03-18T13:35:19.507Z,46.1
2023-03-18T14:25:16.541Z,46.2
2023-03-18T14:30:19.536Z,46.3
2023-03-18T14:35:19.484Z,46.4
2023-03-18T14:40:16.550Z,46.6
2023-03-18T14:45:19.617Z,46.8
2023-03-18T14:50:16.592Z,47.0
2023-03-18T14:55:16.581Z,46.7
2023-03-18T15:00:16.580Z,46.6
2023-03-18T15:05:16.592Z,46.8
2023-03-18T15:10:16.577Z,46.9
2023-03-18T15:15:19.561Z,47.0
2023-03-18T15:20:16.633Z,46.8
2023-03-18T15:25:19.591Z,46.6
2023-03-18T15:30:19.557Z,46.9
2023-03-18T15:35:19.530Z,47.2
2023-03-18T15:40:19.545Z,48.0
2023-03-18T15:45:19.550Z,47.9
2023-03-18T15:50:19.516Z,47.9
2023-03-18T15:55:19.532Z,47.4
2023-03-18T16:00:19.528Z,47.2
2023-03-18T16:05:19.561Z,47.8
2023-03-18T16:10:16.658Z,47.7
2023-03-18T16:15:16.581Z,47.7
2023-03-18T16:20:16.679Z,48.0
2023-03-18T16:25:16.630Z,48.3
2023-03-18T16:30:16.652Z,48.7
2023-03-18T16:35:16.639Z,49.8
2023-03-18T16:40:19.606Z,50.0
2023-03-18T16:45:16.669Z,50.4
2023-03-18T16:50:16.637Z,50.4
2023-03-18T16:55:19.598Z,50.8
2023-03-18T17:00:19.632Z,50.9
2023-03-18T17:05:19.576Z,51.2
2023-03-18T17:10:19.627Z,50.8
2023-03-18T17:15:19.583Z,50.2
2023-03-18T17:20:19.619Z,50.2
2023-03-18T17:25:16.656Z,50.2
2023-03-18T17:30:19.648Z,50.4
2023-03-18T17:35:16.606Z,51.3
2023-03-18T17:40:19.689Z,51.5
2023-03-18T17:45:19.575Z,51.8
2023-03-18T17:50:16.574Z,52.1
2023-03-18T17:55:16.672Z,53.0
2023-03-18T18:00:16.658Z,52.4
2023-03-18T18:05:19.703Z,51.7
2023-03-18T18:10:16.624Z,51.7
2023-03-18T18:15:19.767Z,52.4
2023-03-18T18:20:16.666Z,52.6
2023-03-18T18:25:19.699Z,52.0
2023-03-18T18:30:19.682Z,52.6
2023-03-18T18:35:19.604Z,52.4
2023-03-18T18:40:16.671Z,52.8
2023-03-18T18:45:16.730Z,53.1
2023-03-18T18:50:16.659Z,52.9
2023-03-18T18:55:16.672Z,53.3
2023-03-18T19:00:16.712Z,54.0
2023-03-18T19:05:19.684Z,54.0
2023-03-18T19:10:16.677Z,53.4
2023-03-18T19:15:19.648Z,53.7
2023-03-18T19:20:16.695Z,53.4
2023-03-18T19:25:16.707Z,53.5
2023-03-18T19:30:19.705Z,53.7
2023-03-18T19:35:19.682Z,53.5
2023-03-18T19:40:19.708Z,53.3
2023-03-18T19:45:16.668Z,53.6
2023-03-18T19:50:19.748Z,54.0
2023-03-18T19:55:19.736Z,54.6
2023-03-18T20:00:19.644Z,54.6
2023-03-18T20:05:19.661Z,54.1
2023-03-18T20:10:19.695Z,53.7
2023-03-18T20:15:16.745Z,53.8
2023-03-18T20:20:16.711Z,53.8
2023-03-18T20:25:16.689Z,54.7
2023-03-18T20:30:19.717Z,54.2
2023-03-18T20:35:19.744Z,53.9
2023-03-18T20:40:19.733Z,54.0
2023-03-18T20:45:19.699Z,54.8
2023-03-18T20:50:16.685Z,54.6
2023-03-18T20:55:19.756Z,54.3
2023-03-18T21:00:16.736Z,54.7
2023-03-18T21:05:19.731Z,54.3
2023-03-18T21:10:16.724Z,54.5
2023-03-18T21:15:20.006Z,54.2
2023-03-18T21:20:22.199Z,54.3
2023-03-18T21:25:19.731Z,53.8
2023-03-18T21:30:19.762Z,53.6
2023-03-18T21:35:19.725Z,53.7
2023-03-18T21:40:19.752Z,53.7
2023-03-18T21:45:16.607Z,53.7
2023-03-18T21:50:16.790Z,53.8
2023-03-18T21:55:16.802Z,53.4
2023-03-18T22:00:16.799Z,53.3
2023-03-18T22:05:16.798Z,53.2
2023-03-18T22:10:16.783Z,52.8
2023-03-18T22:15:19.792Z,52.6
2023-03-18T22:20:16.621Z,52.3
2023-03-18T22:25:19.804Z,52.0
2023-03-18T22:30:19.832Z,51.8
2023-03-18T22:35:16.825Z,51.5
2023-03-18T22:40:19.875Z,51.3
2023-03-18T22:45:19.746Z,51.1
2023-03-18T22:50:16.803Z,50.8
2023-03-18T22:55:16.794Z,50.6
2023-03-18T23:00:19.972Z,50.3
2023-03-18T23:05:16.634Z,50.1
2023-03-18T23:10:16.811Z,49.8
2023-03-18T23:15:16.804Z,49.5
2023-03-18T23:20:19.800Z,49.3
2023-03-18T23:25:19.737Z,49.0
2023-03-18T23:30:16.862Z,48.8
2023-03-18T23:35:16.855Z,48.5
2023-03-18T23:40:16.839Z,48.2
2023-03-18T23:45:16.888Z,47.9
2023-03-18T23:50:19.796Z,47.7
2023-03-18T23:55:45.773Z,47.4
